Huvudsida
METAR-TAF:

METAR-TAF

Flygplatser :

Yap International Airport

Yap, Mikronesien

latitud: 09-29N, longitud: 138-05E, höjd: 28 m

Aktuellt väderrapport

Denna rapport gjordes för 1 timme och 22 minuter sedan, klockan 23:50 UTC
Vind 9 kt från ost/nordost
Temperatur 31°C
Fuktighet 71%
Tryck 1011 hPa
Sikt: 19.3 km
Få moln på en höjd av 1800 ft
Spridda moln på en höjd av 30000 ft

METAR: PTYA 092350Z 06009KT 12SM FEW018 SCT300 31/25 A2985 RMK SLP110 8/101 T03050245 10305 20268 52022

Tid: 11:12 (01:12 UTC)

Väderprognos

Denna rapport gjordes för 1 timme och 42 minuter sedan, klockan 23:30 UTC
Prognos gäller från 10 kl. 00 UTC till 10 kl. 24 UTC
Vind 11 kt från ost/nordost
Sikt: 10 km
Få moln på en höjd av 1800 ft
Spridda moln på en höjd av 5000 ft
skurar i närheten

TAF: PTYA 092330Z 1000/1024 07011KT P6SM VCSH FEW018 SCT050

Aktuella väderrapporter och prognoser från 4000 flygplatser (METAR- och TAF-rapporter).

De tillgängliga stationerna syns som gula och röda prickar på kartan.

För musen över prickarna för att se namnen på stationerna.

Klicka sedan för att få väderrapporter och prognoser.

För att ändra kartan: Klicka på de gröna knapparna med ett svart kors på för att zooma in; den gröna knappen med ett streck på för att zooma ut; eller på de gröna pilarna för angränsande kartor.


METAR-TAF: